Portada
METAR-TAF:

METAR-TAF

Aeropuertos :

Limoges, Francia

Aeropuerto de Limoges

latitud: 45-52N, longitud: 001-11E, altitud: 396 m

Observación

El informe se hizo hace 20 minutos, a las 11:00 UTC
Viento 16 kt del sur, variando entre sur-sureste y sur-suroeste
Temperatura 13°C
Humedad 72%
Presión 1013 hPa
Visibilidad 10 km o más
sin nubes por debajo de 1500 m y sin presencia de cumulonimbus.

METAR: LFBL 231100Z AUTO 19016KT 150V210 CAVOK 13/08 Q1013 NOSIG

Hora: 12:20 (11:20 UTC)

Pronóstico

El informe se hizo hace 6 horas y 20 minutos, a las 05:00 UTC
Pronóstico válido del 23 a las 06 UTC al 24 a las 06 UTC
Viento 12 kt del sur
Visibilidad 10 km o más
sin nubes por debajo de 1500 m y sin presencia de cumulonimbus.

TAF: LFBL 230500Z 2306/2406 19012KT CAVOK

Observaciones y pronósticos meteorológicos de más de 4000 aeropuertos (mensajes METAR y TAF).

Los puntos amarillos y rojos representan las estaciones disponibles.

Ponga el ratón en el punto deseado para ver el nombre de la estación.

Haga clic para ver las observaciones y los pronósticos meteorológicos.

Para cambiar el mapa : haga clic en los botones verdes con una cruz de color negro para hacer un zoom, en el botón verde con un guión para alejar o en las flechas verdes para mapas adyacentes.


METAR-TAF: